TimeEDT,TemperatureF,Dew PointF,Humidity,Sea Level PressureIn,VisibilityMPH,Wind Direction,Wind SpeedMPH,Gust SpeedMPH,PrecipitationIn,Events,Conditions,WindDirDegrees,DateUTC
12:54 AM,53.6,53.6,100,-9999,0.0,West,19.6,-,N/A,Fog,Fog,270,2012-10-04 04:54:00
1:50 AM,53.6,53.6,100,-9999,0.0,West,21.9,-,N/A,Fog,Fog,270,2012-10-04 05:50:00
2:47 AM,53.6,53.6,100,-9999,0.0,West,20.7,-,N/A,Fog,Fog,270,2012-10-04 06:47:00
3:53 AM,51.8,51.8,100,-9999,0.0,West,19.6,-,N/A,Fog,Fog,270,2012-10-04 07:53:00
4:53 AM,53.6,53.6,100,-9999,0.0,West,23.0,-,N/A,Fog,Fog,270,2012-10-04 08:53:00
5:49 AM,53.6,53.6,100,-9999,0.0,West,20.7,-,N/A,Fog,Fog,270,2012-10-04 09:49:00
6:48 AM,53.6,53.6,100,-9999,0.0,West,18.4,-,N/A,Fog,Fog,260,2012-10-04 10:48:00
7:53 AM,53.6,53.6,100,-9999,0.0,West,11.5,-,N/A,Fog-Rain,Light Rain Showers,260,2012-10-04 11:53:00
8:50 AM,53.6,53.6,100,-9999,0.0,West,13.8,-,N/A,Fog,Light Drizzle,260,2012-10-04 12:50:00
9:55 AM,53.6,53.6,100,-9999,0.1,West,15.0,-,N/A,Fog,Light Drizzle,260,2012-10-04 13:55:00
10:48 AM,53.6,53.6,100,-9999,0.0,West,13.8,-,N/A,Fog,Light Drizzle,260,2012-10-04 14:48:00
11:50 AM,53.6,53.6,100,-9999,0.1,West,13.8,-,N/A,Fog,Light Drizzle,270,2012-10-04 15:50:00
12:49 PM,53.6,53.6,100,-9999,0.0,WSW,18.4,-,N/A,Fog,Light Drizzle,250,2012-10-04 16:49:00
1:50 PM,51.8,51.8,100,-9999,0.0,West,20.7,-,N/A,Fog,Light Drizzle,260,2012-10-04 17:50:00
2:49 PM,50.0,50.0,100,-9999,0.0,West,33.4,-,N/A,Fog-Rain,Light Rain,270,2012-10-04 18:49:00
2:55 PM,51.8,51.8,100,-9999,0.0,West,19.6,-,N/A,Fog,Light Drizzle,260,2012-10-04 18:55:00
3:50 PM,50.0,50.0,100,-9999,0.0,West,23.0,-,N/A,Fog-Rain,Light Rain,270,2012-10-04 19:50:00
4:53 PM,50.0,50.0,100,-9999,0.0,West,24.2,-,N/A,Fog,Light Drizzle,270,2012-10-04 20:53:00
5:49 PM,50.0,50.0,100,-9999,0.0,West,26.5,-,N/A,Fog,Light Drizzle,260,2012-10-04 21:49:00
6:49 PM,48.2,48.2,100,-9999,0.0,West,28.8,40.3,N/A,Fog,Light Drizzle,260,2012-10-04 22:49:00
7:47 PM,48.2,48.2,100,-9999,0.0,West,34.5,42.6,N/A,Fog,Fog,260,2012-10-04 23:47:00
8:53 PM,46.4,46.4,100,-9999,0.0,West,40.3,-,N/A,Fog,Fog,280,2012-10-05 00:53:00
9:51 PM,46.4,46.4,100,-9999,0.0,West,29.9,43.7,N/A,Fog,Fog,280,2012-10-05 01:51:00
10:50 PM,42.8,42.8,100,-9999,0.0,WNW,40.3,49.5,N/A,Fog,Fog,290,2012-10-05 02:50:00
11:50 PM,42.8,42.8,100,-9999,0.0,WNW,43.7,50.6,N/A,Fog,Fog,300,2012-10-05 03:50:00